createdAt,value
2023-05-07T00:00:23.932Z,101184.38
2023-05-07T00:03:12.644Z,101152.00
2023-05-07T00:05:40.312Z,101174.88
2023-05-07T00:08:07.781Z,101151.25
2023-05-07T00:10:35.030Z,101145.50
2023-05-07T00:13:02.626Z,101142.22
2023-05-07T00:15:29.921Z,101174.72
2023-05-07T00:17:58.533Z,101165.09
2023-05-07T00:20:25.960Z,101181.78
2023-05-07T00:22:53.588Z,101186.41
2023-05-07T00:25:20.854Z,101183.75
2023-05-07T00:27:48.335Z,101174.22
2023-05-07T00:30:15.922Z,101180.41
2023-05-07T00:32:43.571Z,101177.63
2023-05-07T00:35:11.094Z,101184.59
2023-05-07T00:37:38.812Z,101124.56
2023-05-07T00:40:08.417Z,101183.38
2023-05-07T00:42:36.229Z,101188.50
2023-05-07T00:45:03.973Z,101154.75
2023-05-07T00:47:32.640Z,101184.47
2023-05-07T00:50:00.068Z,101190.63
2023-05-07T00:52:28.814Z,101195.44
2023-05-07T00:54:56.457Z,101190.34
2023-05-07T00:57:26.441Z,101192.25
2023-05-07T00:59:53.907Z,101161.19
2023-05-07T01:02:21.581Z,101188.69
2023-05-07T01:04:48.786Z,101196.50
2023-05-07T01:07:17.045Z,101198.75
2023-05-07T01:09:44.333Z,101170.00
2023-05-07T01:12:12.073Z,101198.75
2023-05-07T01:14:39.428Z,101192.19
2023-05-07T01:17:07.861Z,101208.50
2023-05-07T01:19:35.900Z,101209.47
2023-05-07T01:22:10.477Z,101180.00
2023-05-07T01:24:47.464Z,101200.22
2023-05-07T01:27:16.238Z,101206.78
2023-05-07T01:29:44.002Z,101181.63
2023-05-07T01:32:14.284Z,101216.19
2023-05-07T01:34:41.984Z,101174.31
2023-05-07T01:37:09.829Z,101218.75
2023-05-07T01:39:40.923Z,101211.44
2023-05-07T01:42:08.581Z,101191.41
2023-05-07T01:44:36.176Z,101231.69
2023-05-07T01:47:04.490Z,101222.69
2023-05-07T01:49:31.930Z,101220.78
2023-05-07T01:52:00.300Z,101225.94
2023-05-07T01:54:31.638Z,101224.94
2023-05-07T01:57:01.161Z,101225.00
2023-05-07T01:59:28.458Z,101194.66
2023-05-07T02:01:56.297Z,101229.78
2023-05-07T02:04:23.670Z,101226.72
2023-05-07T02:06:51.993Z,101219.69
2023-05-07T02:09:20.494Z,101229.13
2023-05-07T02:11:50.402Z,101192.69
2023-05-07T02:14:21.219Z,101209.19
2023-05-07T02:16:48.982Z,101203.50
2023-05-07T02:19:17.299Z,101209.53
2023-05-07T02:21:44.922Z,101209.19
2023-05-07T02:24:12.158Z,101217.38
2023-05-07T02:26:40.528Z,101216.50
2023-05-07T02:29:08.119Z,101246.38
2023-05-07T02:31:35.782Z,101238.91
2023-05-07T02:34:03.322Z,101240.94
2023-05-07T02:36:31.225Z,101205.38
2023-05-07T02:39:04.879Z,101246.63
2023-05-07T02:41:33.065Z,101250.03
2023-05-07T02:44:00.339Z,101251.88
2023-05-07T02:46:28.122Z,101222.31
2023-05-07T02:49:01.969Z,101227.91
2023-05-07T02:51:31.856Z,101258.69
2023-05-07T02:54:02.313Z,101220.03
2023-05-07T02:56:31.364Z,101236.94
2023-05-07T02:58:58.968Z,101250.00
2023-05-07T03:01:30.364Z,101248.31
2023-05-07T03:04:06.655Z,101254.50
2023-05-07T03:06:34.305Z,101247.25
2023-05-07T03:09:01.581Z,101229.19
2023-05-07T03:11:29.533Z,101247.78
2023-05-07T03:13:56.724Z,101262.31
2023-05-07T03:16:24.352Z,101265.66
2023-05-07T03:18:51.804Z,101267.25
2023-05-07T03:21:19.322Z,101276.38
2023-05-07T03:23:46.558Z,101230.03
2023-05-07T03:26:14.502Z,101270.81
2023-05-07T03:28:42.546Z,101229.84
2023-05-07T03:31:13.447Z,101278.69
2023-05-07T03:33:55.442Z,101280.78
2023-05-07T03:36:23.698Z,101274.47
2023-05-07T03:38:51.643Z,101293.69
2023-05-07T03:41:22.113Z,101290.22
2023-05-07T03:43:49.482Z,101290.97
2023-05-07T03:46:17.395Z,101299.16
2023-05-07T03:48:45.713Z,101270.69
2023-05-07T03:51:15.167Z,101270.28
2023-05-07T03:53:42.656Z,101274.16
2023-05-07T03:56:10.549Z,101283.22
2023-05-07T03:58:40.214Z,101272.25
2023-05-07T04:01:10.809Z,101298.16
2023-05-07T04:03:38.278Z,101306.91
2023-05-07T04:06:06.209Z,101278.75
2023-05-07T04:08:35.634Z,101311.63
2023-05-07T04:11:04.508Z,101312.69
2023-05-07T04:13:33.725Z,101323.53
2023-05-07T04:16:05.302Z,101303.53
2023-05-07T04:18:35.344Z,101314.13
2023-05-07T04:21:02.932Z,101314.03
2023-05-07T04:23:30.321Z,101316.03
2023-05-07T04:26:01.935Z,101300.25
2023-05-07T04:28:37.666Z,101317.88
2023-05-07T04:31:05.479Z,101316.34
2023-05-07T04:33:34.929Z,101330.38
2023-05-07T04:36:04.486Z,101326.69
2023-05-07T04:38:35.133Z,101302.09
2023-05-07T04:41:06.361Z,101340.19
2023-05-07T04:43:36.958Z,101319.56
2023-05-07T04:46:04.512Z,101335.00
2023-05-07T04:48:31.995Z,101309.81
2023-05-07T04:51:01.156Z,101316.50
2023-05-07T04:53:28.687Z,101352.72
2023-05-07T04:55:58.499Z,101343.22
2023-05-07T04:58:32.963Z,101350.47
2023-05-07T05:01:01.526Z,101335.84
2023-05-07T05:03:29.672Z,101348.22
2023-05-07T05:06:00.428Z,101361.94
2023-05-07T05:08:31.675Z,101339.91
2023-05-07T05:10:59.321Z,101367.91
2023-05-07T05:13:26.499Z,101361.84
2023-05-07T05:15:54.211Z,101365.41
2023-05-07T05:18:21.967Z,101360.53
2023-05-07T05:20:49.665Z,101355.44
2023-05-07T05:23:17.296Z,101307.22
2023-05-07T05:25:45.394Z,101364.47
2023-05-07T05:28:15.006Z,101370.59
2023-05-07T05:30:42.545Z,101367.63
2023-05-07T05:33:10.325Z,101372.47
2023-05-07T05:35:38.001Z,101343.94
2023-05-07T05:38:08.026Z,101341.44
2023-05-07T05:40:35.635Z,101381.63
2023-05-07T05:43:03.254Z,101389.56
2023-05-07T05:45:31.094Z,101395.88
2023-05-07T05:47:58.825Z,101392.59
2023-05-07T05:50:26.532Z,101374.59
2023-05-07T05:52:55.250Z,101392.88
2023-05-07T05:55:23.606Z,101393.53
2023-05-07T05:57:51.892Z,101392.28
2023-05-07T06:00:23.424Z,101344.44
2023-05-07T06:02:58.694Z,101386.22
2023-05-07T06:05:27.405Z,101382.50
2023-05-07T06:07:57.255Z,101381.09
2023-05-07T06:10:25.518Z,101391.09
2023-05-07T06:12:53.062Z,101364.19
2023-05-07T06:15:20.927Z,101395.69
2023-05-07T06:17:50.345Z,101392.91
2023-05-07T06:20:18.380Z,101409.09
2023-05-07T06:22:45.995Z,101390.91
2023-05-07T06:25:15.851Z,101414.66
2023-05-07T06:27:44.284Z,101393.63
2023-05-07T06:30:12.438Z,101411.22
2023-05-07T06:32:42.032Z,101415.63
2023-05-07T06:35:10.483Z,101397.44
2023-05-07T06:37:40.656Z,101408.50
2023-05-07T06:40:10.077Z,101411.00
2023-05-07T06:42:39.805Z,101416.41
2023-05-07T06:45:39.592Z,101400.31
2023-05-07T06:48:09.789Z,101377.38
2023-05-07T06:50:47.228Z,101415.72
2023-05-07T06:53:14.534Z,101382.69
2023-05-07T06:55:42.814Z,101385.44
2023-05-07T06:58:11.052Z,101423.06
2023-05-07T07:00:39.167Z,101400.66
2023-05-07T07:03:06.467Z,101413.50
2023-05-07T07:05:34.185Z,101391.75
2023-05-07T07:08:03.997Z,101419.66
2023-05-07T07:10:31.605Z,101420.72
2023-05-07T07:12:59.074Z,101418.72
2023-05-07T07:15:27.574Z,101431.59
2023-05-07T07:17:56.540Z,101399.53
2023-05-07T07:20:25.459Z,101401.97
2023-05-07T07:22:52.998Z,101438.34
2023-05-07T07:25:20.695Z,101417.06
2023-05-07T07:27:49.304Z,101420.19
2023-05-07T07:30:17.642Z,101418.00
2023-05-07T07:32:48.356Z,101415.50
2023-05-07T07:35:17.149Z,101405.41
2023-05-07T07:37:45.490Z,101439.06
2023-05-07T07:40:15.218Z,101442.88
2023-05-07T07:42:42.761Z,101430.94
2023-05-07T07:45:11.772Z,101421.53
2023-05-07T07:47:43.293Z,101441.84
2023-05-07T07:50:12.045Z,101435.53
2023-05-07T07:52:43.075Z,101446.44
2023-05-07T07:55:11.861Z,101452.34
2023-05-07T07:57:40.150Z,101449.16
2023-05-07T08:00:08.645Z,101416.09
2023-05-07T08:02:44.192Z,101441.28
2023-05-07T08:05:18.748Z,101441.88
2023-05-07T08:07:52.948Z,101432.78
2023-05-07T08:10:24.459Z,101435.06
2023-05-07T08:12:57.963Z,101430.66
2023-05-07T08:15:25.597Z,101405.50
2023-05-07T08:17:52.891Z,101426.97
2023-05-07T08:20:21.462Z,101440.34
2023-05-07T08:22:48.992Z,101429.44
2023-05-07T08:25:16.684Z,101407.75
2023-05-07T08:27:45.421Z,101436.88
2023-05-07T08:30:14.547Z,101416.69
2023-05-07T08:32:42.272Z,101442.75
2023-05-07T08:35:10.845Z,101417.41
2023-05-07T08:37:38.349Z,101433.19
2023-05-07T08:40:10.204Z,101449.25
2023-05-07T08:42:41.529Z,101441.44
2023-05-07T08:45:11.772Z,101447.69
2023-05-07T08:47:53.267Z,101449.47
2023-05-07T08:50:23.625Z,101447.28
2023-05-07T08:52:52.212Z,101451.13
2023-05-07T08:55:21.634Z,101416.88
2023-05-07T08:57:49.551Z,101422.75
2023-05-07T09:00:18.617Z,101451.63
2023-05-07T09:02:49.623Z,101463.84
2023-05-07T09:05:17.404Z,101452.56
2023-05-07T09:07:44.987Z,101453.44
2023-05-07T09:10:14.686Z,101455.59
2023-05-07T09:12:43.643Z,101449.19
2023-05-07T09:15:13.861Z,101452.06
2023-05-07T09:17:43.461Z,101452.38
2023-05-07T09:20:11.459Z,101460.25
2023-05-07T09:22:40.154Z,101428.84
2023-05-07T09:25:12.034Z,101448.63
2023-05-07T09:27:40.426Z,101429.63
2023-05-07T09:30:08.419Z,101461.09
2023-05-07T09:32:39.358Z,101450.78
2023-05-07T09:35:18.018Z,101410.47
2023-05-07T09:37:49.059Z,101441.69
2023-05-07T09:40:31.382Z,101410.19
2023-05-07T09:43:14.798Z,101461.91
2023-05-07T09:45:56.030Z,101463.38
2023-05-07T09:48:26.880Z,101462.91
2023-05-07T09:51:01.001Z,101433.81
2023-05-07T09:53:32.088Z,101457.41
2023-05-07T09:56:05.156Z,101426.75
2023-05-07T09:58:34.624Z,101432.91
2023-05-07T10:01:03.649Z,101462.41
2023-05-07T10:03:33.728Z,101468.19
2023-05-07T10:06:06.335Z,101421.91
2023-05-07T10:08:34.372Z,101460.16
2023-05-07T10:11:05.156Z,101467.59
2023-05-07T10:13:36.797Z,101457.03
2023-05-07T10:16:05.878Z,101435.50
2023-05-07T10:18:40.559Z,101470.78
2023-05-07T10:21:24.850Z,101475.88
2023-05-07T10:24:01.553Z,101458.13
2023-05-07T10:26:33.391Z,101416.16
2023-05-07T10:29:39.398Z,101458.56
2023-05-07T10:32:28.202Z,101456.59
2023-05-07T10:35:00.187Z,101444.94
2023-05-07T10:37:28.023Z,101439.56
2023-05-07T10:39:56.058Z,101427.72
2023-05-07T10:42:24.433Z,101460.69
2023-05-07T10:44:54.390Z,101417.69
2023-05-07T10:47:26.266Z,101454.22
2023-05-07T10:50:06.590Z,101455.84
2023-05-07T10:52:37.825Z,101414.91
2023-05-07T10:55:18.814Z,101452.59
2023-05-07T10:57:57.450Z,101452.50
2023-05-07T11:00:38.632Z,101445.47
2023-05-07T11:03:11.846Z,101431.75
2023-05-07T11:06:17.095Z,101467.75
2023-05-07T11:09:02.298Z,101435.34
2023-05-07T11:11:54.213Z,101424.97
2023-05-07T11:14:42.365Z,101473.28
2023-05-07T11:17:13.683Z,101420.00
2023-05-07T11:19:54.092Z,101469.88
2023-05-07T11:22:34.193Z,101472.41
2023-05-07T11:25:22.526Z,101459.91
2023-05-07T11:28:06.330Z,101449.09
2023-05-07T11:30:35.580Z,101466.88
2023-05-07T11:33:05.687Z,101455.91
2023-05-07T11:35:37.178Z,101472.59
2023-05-07T11:38:07.257Z,101436.22
2023-05-07T11:40:36.296Z,101454.63
2023-05-07T11:43:12.245Z,101437.72
2023-05-07T11:45:39.839Z,101450.06
2023-05-07T11:48:07.113Z,101467.72
2023-05-07T11:50:34.598Z,101467.13
2023-05-07T11:53:01.836Z,101446.69
2023-05-07T11:55:29.644Z,101438.75
2023-05-07T11:57:56.822Z,101454.72
2023-05-07T12:00:24.318Z,101433.38
2023-05-07T12:02:51.785Z,101459.84
2023-05-07T12:05:19.314Z,101435.59
2023-05-07T12:07:46.585Z,101448.72
2023-05-07T12:10:14.721Z,101463.69
2023-05-07T12:12:45.693Z,101465.53
2023-05-07T12:15:17.514Z,101463.72
2023-05-07T12:17:45.508Z,101440.59
2023-05-07T12:20:14.000Z,101478.19
2023-05-07T12:22:42.206Z,101469.72
2023-05-07T12:25:10.574Z,101459.34
2023-05-07T12:27:40.286Z,101436.03
2023-05-07T12:30:11.644Z,101472.06
2023-05-07T12:32:38.997Z,101477.28
2023-05-07T12:35:07.846Z,101478.47
2023-05-07T12:37:36.888Z,101473.47
2023-05-07T12:40:09.889Z,101473.31
2023-05-07T12:42:38.548Z,101473.34
2023-05-07T12:45:24.260Z,101434.38
2023-05-07T12:47:51.566Z,101460.53
2023-05-07T12:50:19.249Z,101486.66
2023-05-07T12:52:48.802Z,101489.59
2023-05-07T12:55:17.839Z,101459.44
2023-05-07T12:57:49.676Z,101467.16
2023-05-07T13:00:17.534Z,101469.47
2023-05-07T13:02:46.531Z,101438.13
2023-05-07T13:05:14.461Z,101485.94
2023-05-07T13:07:42.778Z,101458.59
2023-05-07T13:10:10.995Z,101482.91
2023-05-07T13:12:38.224Z,101467.47
2023-05-07T13:15:06.279Z,101457.19
2023-05-07T13:17:33.559Z,101483.28
2023-05-07T13:20:01.196Z,101462.25
2023-05-07T13:22:28.417Z,101454.53
2023-05-07T13:24:55.906Z,101477.28
2023-05-07T13:27:23.221Z,101484.06
2023-05-07T13:29:50.930Z,101488.97
2023-05-07T13:32:18.240Z,101495.00
2023-05-07T13:34:45.873Z,101499.44
2023-05-07T13:37:13.078Z,101494.72
2023-05-07T13:39:41.940Z,101486.97
2023-05-07T13:42:09.198Z,101451.53
2023-05-07T13:44:36.796Z,101471.16
2023-05-07T13:47:03.996Z,101485.19
2023-05-07T13:49:31.642Z,101478.16
2023-05-07T13:51:58.910Z,101476.53
2023-05-07T13:54:26.413Z,101474.06
2023-05-07T13:56:53.593Z,101450.22
2023-05-07T13:59:21.808Z,101446.75
2023-05-07T14:01:49.109Z,101441.94
2023-05-07T14:04:16.629Z,101474.25
2023-05-07T14:06:44.510Z,101455.44
2023-05-07T14:09:14.372Z,101478.69
2023-05-07T14:11:42.047Z,101444.03
2023-05-07T14:14:12.894Z,101480.19
2023-05-07T14:16:40.226Z,101487.38
2023-05-07T14:19:07.714Z,101474.06
2023-05-07T14:21:35.028Z,101480.00
2023-05-07T14:24:02.603Z,101479.31
2023-05-07T14:26:30.340Z,101459.44
2023-05-07T14:28:59.439Z,101479.72
2023-05-07T14:31:27.053Z,101478.97
2023-05-07T14:33:54.727Z,101484.00
2023-05-07T14:36:23.879Z,101453.56
2023-05-07T14:38:51.462Z,101461.66
2023-05-07T14:41:18.775Z,101490.94
2023-05-07T14:43:50.990Z,101491.41
2023-05-07T14:46:19.259Z,101463.66
2023-05-07T14:48:47.358Z,101502.47
2023-05-07T14:51:14.922Z,101449.34
2023-05-07T14:53:43.089Z,101488.56
2023-05-07T14:56:10.688Z,101463.09
2023-05-07T14:58:39.031Z,101492.41
2023-05-07T15:01:06.277Z,101494.22
2023-05-07T15:03:35.695Z,101466.81
2023-05-07T15:06:03.837Z,101474.88
2023-05-07T15:08:31.367Z,101496.69
2023-05-07T15:10:58.639Z,101480.34
2023-05-07T15:13:26.189Z,101483.03
2023-05-07T15:15:53.464Z,101482.56
2023-05-07T15:18:22.912Z,101442.41
2023-05-07T15:20:50.523Z,101489.16
2023-05-07T15:23:18.122Z,101492.41
2023-05-07T15:25:50.283Z,101435.81
2023-05-07T15:28:20.577Z,101515.53
2023-05-07T15:30:47.906Z,101504.63
2023-05-07T15:33:15.749Z,101499.13
2023-05-07T15:35:43.016Z,101517.63
2023-05-07T15:38:10.770Z,101515.44
2023-05-07T15:40:42.640Z,101476.50
2023-05-07T15:43:11.128Z,101503.19
2023-05-07T15:45:42.529Z,101495.38
2023-05-07T15:48:11.543Z,101498.06
2023-05-07T15:50:39.292Z,101492.03
2023-05-07T15:53:06.890Z,101496.44
2023-05-07T15:55:34.501Z,101465.47
2023-05-07T15:58:03.099Z,101473.03
2023-05-07T16:00:30.733Z,101502.06
2023-05-07T16:02:58.644Z,101475.75
2023-05-07T16:05:26.083Z,101509.19
2023-05-07T16:07:53.724Z,101505.63
2023-05-07T16:10:20.960Z,101508.69
2023-05-07T16:12:48.459Z,101480.66
2023-05-07T16:15:15.859Z,101484.69
2023-05-07T16:17:46.722Z,101504.75
2023-05-07T16:20:15.486Z,101493.72
2023-05-07T16:22:45.594Z,101501.72
2023-05-07T16:25:14.819Z,101500.75
2023-05-07T16:27:42.569Z,101503.16
2023-05-07T16:30:10.172Z,101488.09
2023-05-07T16:32:37.840Z,101516.28
2023-05-07T16:35:06.454Z,101447.09
2023-05-07T16:37:34.582Z,101508.59
2023-05-07T16:40:02.710Z,101462.41
2023-05-07T16:42:30.842Z,101498.03
2023-05-07T16:44:58.084Z,101495.22
2023-05-07T16:47:25.582Z,101456.91
2023-05-07T16:49:53.043Z,101500.38
2023-05-07T16:52:20.675Z,101468.63
2023-05-07T16:54:48.128Z,101498.25
2023-05-07T16:57:15.908Z,101504.66
2023-05-07T16:59:43.215Z,101492.38
2023-05-07T17:02:10.805Z,101479.19
2023-05-07T17:04:38.138Z,101506.97
2023-05-07T17:07:06.643Z,101502.69
2023-05-07T17:09:34.321Z,101509.41
2023-05-07T17:12:02.875Z,101501.69
2023-05-07T17:14:30.086Z,101508.31
2023-05-07T17:16:57.601Z,101480.41
2023-05-07T17:19:24.770Z,101473.56
2023-05-07T17:21:52.223Z,101511.03
2023-05-07T17:24:19.392Z,101499.38
2023-05-07T17:26:48.458Z,101504.88
2023-05-07T17:29:15.764Z,101476.09
2023-05-07T17:31:43.349Z,101515.06
2023-05-07T17:34:10.648Z,101492.53
2023-05-07T17:36:38.125Z,101488.25
2023-05-07T17:39:05.311Z,101481.88
2023-05-07T17:41:36.203Z,101510.53
2023-05-07T17:44:04.024Z,101480.47
2023-05-07T17:46:36.876Z,101502.69
2023-05-07T17:49:16.239Z,101506.84
2023-05-07T17:51:53.958Z,101522.25
2023-05-07T17:54:24.347Z,101518.03
2023-05-07T17:56:52.057Z,101507.59
2023-05-07T17:59:19.648Z,101498.50
2023-05-07T18:01:47.394Z,101501.28
2023-05-07T18:04:14.905Z,101534.09
2023-05-07T18:06:42.843Z,101512.84
2023-05-07T18:09:10.203Z,101494.50
2023-05-07T18:11:38.111Z,101531.13
2023-05-07T18:14:05.527Z,101530.28
2023-05-07T18:16:33.240Z,101520.50
2023-05-07T18:19:00.615Z,101532.00
2023-05-07T18:21:28.199Z,101519.13
2023-05-07T18:23:55.389Z,101537.59
2023-05-07T18:26:22.954Z,101534.25
2023-05-07T18:28:50.184Z,101537.75
2023-05-07T18:31:17.796Z,101547.66
2023-05-07T18:33:45.038Z,101535.97
2023-05-07T18:36:12.560Z,101546.38
2023-05-07T18:38:39.859Z,101546.38
2023-05-07T18:41:07.516Z,101549.13
2023-05-07T18:43:34.772Z,101555.78
2023-05-07T18:46:02.336Z,101563.72
2023-05-07T18:48:29.639Z,101579.22
2023-05-07T18:50:57.308Z,101565.78
2023-05-07T18:53:24.945Z,101560.16
2023-05-07T18:55:53.191Z,101539.78
2023-05-07T18:58:20.689Z,101560.28
2023-05-07T19:00:49.028Z,101541.84
2023-05-07T19:03:17.281Z,101545.47
2023-05-07T19:05:45.793Z,101576.00
2023-05-07T19:08:13.565Z,101539.66
2023-05-07T19:10:41.158Z,101575.66
2023-05-07T19:13:08.435Z,101580.94
2023-05-07T19:15:35.955Z,101589.41
2023-05-07T19:18:03.508Z,101584.03
2023-05-07T19:20:31.195Z,101586.19
2023-05-07T19:22:58.442Z,101583.72
2023-05-07T19:25:26.092Z,101553.44
2023-05-07T19:27:53.298Z,101587.69
2023-05-07T19:30:20.966Z,101592.31
2023-05-07T19:32:48.373Z,101594.75
2023-05-07T19:35:16.050Z,101579.50
2023-05-07T19:37:43.359Z,101551.25
2023-05-07T19:40:11.510Z,101555.34
2023-05-07T19:42:38.755Z,101590.78
2023-05-07T19:45:06.799Z,101598.94
2023-05-07T19:47:34.339Z,101601.06
2023-05-07T19:50:01.952Z,101605.50
2023-05-07T19:52:29.149Z,101577.00
2023-05-07T19:54:56.764Z,101595.69
2023-05-07T19:57:24.012Z,101596.59
2023-05-07T19:59:51.517Z,101535.56
2023-05-07T20:02:18.829Z,101596.78
2023-05-07T20:04:46.551Z,101596.34
2023-05-07T20:07:14.017Z,101606.03
2023-05-07T20:09:41.908Z,101566.31
2023-05-07T20:12:09.198Z,101581.38
2023-05-07T20:14:36.739Z,101605.88
2023-05-07T20:17:04.041Z,101563.81
2023-05-07T20:19:31.557Z,101591.56
2023-05-07T20:21:58.756Z,101603.16
2023-05-07T20:24:26.337Z,101605.44
2023-05-07T20:26:53.586Z,101562.56
2023-05-07T20:29:22.827Z,101590.47
2023-05-07T20:31:50.190Z,101604.25
2023-05-07T20:34:17.729Z,101611.00
2023-05-07T20:36:46.425Z,101609.03
2023-05-07T20:39:16.091Z,101615.44
2023-05-07T20:41:46.453Z,101613.47
2023-05-07T20:44:13.941Z,101619.53
2023-05-07T20:46:41.244Z,101587.31
2023-05-07T20:49:09.951Z,101611.66
2023-05-07T20:51:37.461Z,101610.16
2023-05-07T20:54:05.125Z,101615.19
2023-05-07T20:56:32.397Z,101576.81
2023-05-07T20:58:59.955Z,101620.78
2023-05-07T21:01:27.311Z,101628.41
2023-05-07T21:03:54.923Z,101617.88
2023-05-07T21:06:22.110Z,101618.44
2023-05-07T21:08:49.607Z,101619.06
2023-05-07T21:11:17.027Z,101592.38
2023-05-07T21:13:44.905Z,101605.28
2023-05-07T21:16:12.420Z,101602.50
2023-05-07T21:18:40.198Z,101591.22
2023-05-07T21:21:08.583Z,101636.66
2023-05-07T21:23:36.837Z,101595.59
2023-05-07T21:26:04.400Z,101634.69
2023-05-07T21:28:32.028Z,101635.09
2023-05-07T21:30:59.252Z,101639.41
2023-05-07T21:33:26.823Z,101602.13
2023-05-07T21:35:54.243Z,101608.44
2023-05-07T21:38:21.795Z,101651.09
2023-05-07T21:40:49.078Z,101605.47
2023-05-07T21:43:16.646Z,101638.50
2023-05-07T21:45:43.988Z,101648.63
2023-05-07T21:48:13.536Z,101644.97
2023-05-07T21:50:40.831Z,101638.50
2023-05-07T21:53:08.447Z,101611.72
2023-05-07T21:55:35.883Z,101642.91
2023-05-07T21:58:05.988Z,101612.78
2023-05-07T22:00:33.787Z,101650.63
2023-05-07T22:03:01.422Z,101642.00
2023-05-07T22:05:28.826Z,101600.94
2023-05-07T22:07:56.398Z,101632.56
2023-05-07T22:10:24.118Z,101626.13
2023-05-07T22:12:51.630Z,101629.28
2023-05-07T22:15:19.039Z,101609.38
2023-05-07T22:17:46.561Z,101627.28
2023-05-07T22:20:14.253Z,101644.28
2023-05-07T22:22:56.038Z,101634.81
2023-05-07T22:25:24.387Z,101639.00
2023-05-07T22:27:52.386Z,101641.84
2023-05-07T22:30:19.644Z,101634.28
2023-05-07T22:32:47.414Z,101599.25
2023-05-07T22:35:15.056Z,101625.41
2023-05-07T22:37:42.614Z,101626.56
2023-05-07T22:40:10.450Z,101631.78
2023-05-07T22:42:38.071Z,101626.03
2023-05-07T22:45:05.784Z,101628.63
2023-05-07T22:47:33.484Z,101622.22
2023-05-07T22:50:01.099Z,101616.09
2023-05-07T22:52:28.762Z,101592.63
2023-05-07T22:54:55.961Z,101608.22
2023-05-07T22:57:23.497Z,101584.19
2023-05-07T22:59:54.619Z,101594.84
2023-05-07T23:02:23.349Z,101608.97
2023-05-07T23:04:50.636Z,101618.38
2023-05-07T23:07:18.141Z,101590.69
2023-05-07T23:09:45.496Z,101596.28
2023-05-07T23:12:13.073Z,101623.28
2023-05-07T23:14:40.333Z,101590.78
2023-05-07T23:17:08.044Z,101591.84
2023-05-07T23:19:35.339Z,101620.94
2023-05-07T23:22:02.922Z,101620.59
2023-05-07T23:24:30.095Z,101617.84
2023-05-07T23:26:57.565Z,101623.44
2023-05-07T23:29:24.805Z,101548.31
2023-05-07T23:31:52.283Z,101620.00
2023-05-07T23:34:24.094Z,101614.81
2023-05-07T23:36:51.800Z,101581.47
2023-05-07T23:39:19.591Z,101616.13
2023-05-07T23:41:47.209Z,101623.38
2023-05-07T23:44:16.625Z,101608.72
2023-05-07T23:46:44.839Z,101616.00
2023-05-07T23:49:12.295Z,101633.03
2023-05-07T23:51:39.874Z,101636.84
2023-05-07T23:54:07.384Z,101620.97
2023-05-07T23:56:35.036Z,101588.66
2023-05-07T23:59:02.227Z,101600.13
